createdAt,value
2017-01-30T00:00:15.145Z,84.08
2017-01-30T00:00:36.936Z,83.98
2017-01-30T00:00:58.642Z,83.99
2017-01-30T00:01:20.362Z,84.00
2017-01-30T00:01:42.172Z,83.95
2017-01-30T00:02:44.688Z,84.25
2017-01-30T00:03:06.498Z,84.40
2017-01-30T00:03:28.209Z,84.48
2017-01-30T00:03:59.468Z,84.81
2017-01-30T00:04:21.173Z,84.93
2017-01-30T00:04:47.660Z,84.99
2017-01-30T00:05:09.362Z,85.10
2017-01-30T00:05:31.066Z,84.94
2017-01-30T00:05:57.626Z,85.00
2017-01-30T00:06:19.334Z,84.98
2017-01-30T00:06:41.046Z,84.80
2017-01-30T00:07:02.754Z,84.79
2017-01-30T00:07:29.320Z,84.89
2017-01-30T00:08:00.582Z,85.04
2017-01-30T00:08:22.297Z,84.97
2017-01-30T00:08:44.087Z,84.68
2017-01-30T00:09:47.166Z,84.47
2017-01-30T00:10:08.969Z,84.51
2017-01-30T00:10:30.692Z,84.61
2017-01-30T00:10:57.176Z,84.70
2017-01-30T00:11:18.879Z,84.70
2017-01-30T00:11:40.655Z,84.57
2017-01-30T00:12:02.398Z,84.57
2017-01-30T00:12:24.120Z,84.55
2017-01-30T00:12:45.858Z,84.38
2017-01-30T00:13:07.657Z,84.30
2017-01-30T00:13:29.369Z,84.35
2017-01-30T00:13:55.876Z,84.30
2017-01-30T00:14:17.647Z,84.32
2017-01-30T00:14:48.905Z,84.43
2017-01-30T00:15:10.607Z,84.46
2017-01-30T00:16:13.250Z,84.45
2017-01-30T00:16:34.943Z,84.55
2017-01-30T00:17:42.325Z,84.54
2017-01-30T00:18:04.049Z,84.47
2017-01-30T00:19:11.325Z,84.52
2017-01-30T00:19:33.143Z,84.39
2017-01-30T00:19:59.631Z,84.30
2017-01-30T00:20:21.330Z,84.28
2017-01-30T00:21:24.578Z,84.22
2017-01-30T00:21:46.282Z,84.29
2017-01-30T00:22:49.604Z,84.40
2017-01-30T00:23:11.333Z,84.66
2017-01-30T00:24:14.503Z,84.54
2017-01-30T00:24:36.206Z,84.54
2017-01-30T00:24:57.908Z,84.51
2017-01-30T00:25:29.166Z,84.60
2017-01-30T00:25:50.986Z,84.63
2017-01-30T00:26:22.256Z,84.53
2017-01-30T00:26:44.062Z,84.50
2017-01-30T00:27:05.771Z,84.41
2017-01-30T00:27:32.258Z,84.48
2017-01-30T00:27:54.072Z,84.55
2017-01-30T00:28:20.547Z,84.56
2017-01-30T00:28:42.266Z,84.62
2017-01-30T00:29:13.509Z,84.35
2017-01-30T00:29:35.301Z,84.32
2017-01-30T00:30:06.577Z,84.44
2017-01-30T00:30:28.392Z,84.42
2017-01-30T00:30:59.648Z,84.31
2017-01-30T00:31:21.376Z,84.19
2017-01-30T00:31:52.638Z,84.11
2017-01-30T00:32:14.422Z,84.11
2017-01-30T00:32:45.678Z,84.14
2017-01-30T00:33:07.572Z,84.13
2017-01-30T00:33:38.849Z,84.12
2017-01-30T00:34:00.661Z,84.09
2017-01-30T00:34:22.389Z,84.10
2017-01-30T00:34:48.872Z,84.09
2017-01-30T00:35:10.579Z,84.07
2017-01-30T00:35:32.405Z,84.03
2017-01-30T00:36:03.661Z,83.88
2017-01-30T00:36:25.397Z,83.94
2017-01-30T00:36:47.207Z,83.99
2017-01-30T00:37:18.468Z,84.12
2017-01-30T00:37:40.184Z,84.09
2017-01-30T00:38:06.658Z,84.25
2017-01-30T00:38:28.371Z,84.43
2017-01-30T00:39:30.952Z,84.30
2017-01-30T00:39:52.658Z,84.18
2017-01-30T00:40:19.144Z,84.12
2017-01-30T00:40:40.957Z,84.04
2017-01-30T00:41:02.672Z,84.06
2017-01-30T00:41:24.378Z,84.03
2017-01-30T00:41:46.094Z,84.12
2017-01-30T00:42:12.663Z,84.07
2017-01-30T00:42:34.408Z,84.09
2017-01-30T00:43:00.997Z,84.14
2017-01-30T00:43:22.788Z,84.37
2017-01-30T00:43:44.596Z,84.45
2017-01-30T00:44:11.108Z,84.37
2017-01-30T00:44:32.842Z,84.36
2017-01-30T00:44:54.572Z,84.28
2017-01-30T00:45:52.875Z,84.28
2017-01-30T00:46:14.793Z,84.36
2017-01-30T00:46:36.513Z,84.64
2017-01-30T00:47:03.077Z,84.79
2017-01-30T00:47:24.784Z,84.74
2017-01-30T00:47:51.268Z,84.82
2017-01-30T00:48:13.115Z,84.86
2017-01-30T00:48:34.831Z,84.86
2017-01-30T00:49:01.314Z,84.96
2017-01-30T00:49:23.017Z,84.93
2017-01-30T00:49:44.800Z,84.69
2017-01-30T00:50:11.308Z,84.63
2017-01-30T00:50:33.001Z,84.56
2017-01-30T00:50:54.743Z,84.64
2017-01-30T00:51:21.324Z,84.79
2017-01-30T00:51:43.108Z,84.91
2017-01-30T00:52:04.923Z,84.73
2017-01-30T00:52:36.172Z,84.85
2017-01-30T00:52:57.882Z,84.85
2017-01-30T00:53:19.592Z,84.67
2017-01-30T00:53:50.843Z,84.42
2017-01-30T00:54:13.764Z,84.48
2017-01-30T00:55:16.309Z,84.69
2017-01-30T00:55:42.786Z,84.78
2017-01-30T00:56:04.495Z,84.80
2017-01-30T00:56:35.753Z,84.95
2017-01-30T00:56:57.455Z,85.15
2017-01-30T00:58:04.725Z,85.04
2017-01-30T00:58:26.523Z,84.92
2017-01-30T00:59:29.129Z,84.75
2017-01-30T00:59:55.600Z,84.93
2017-01-30T01:00:17.315Z,85.03
2017-01-30T01:00:48.578Z,85.34
2017-01-30T01:01:10.269Z,85.42
2017-01-30T01:02:17.543Z,85.46
2017-01-30T01:02:39.339Z,85.45
2017-01-30T01:03:01.051Z,85.40
2017-01-30T01:03:32.303Z,85.36
2017-01-30T01:03:54.127Z,85.41
2017-01-30T01:04:15.817Z,85.46
2017-01-30T01:04:37.523Z,85.47
2017-01-30T01:04:59.304Z,85.40
2017-01-30T01:05:21.028Z,85.36
2017-01-30T01:05:52.273Z,85.37
2017-01-30T01:06:13.990Z,85.28
2017-01-30T01:06:35.785Z,85.22
2017-01-30T01:06:57.490Z,85.20
2017-01-30T01:07:19.192Z,85.15
2017-01-30T01:07:40.899Z,85.26
2017-01-30T01:08:02.606Z,85.09
2017-01-30T01:08:24.302Z,84.91
2017-01-30T01:08:46.089Z,84.70
2017-01-30T01:09:07.793Z,84.61
2017-01-30T01:09:29.494Z,84.91
2017-01-30T01:09:51.200Z,84.96
2017-01-30T01:10:13.086Z,85.04
2017-01-30T01:10:34.910Z,84.89
2017-01-30T01:11:06.161Z,84.85
2017-01-30T01:11:27.856Z,84.93
2017-01-30T01:11:59.187Z,84.98
2017-01-30T01:12:20.987Z,84.90
2017-01-30T01:12:42.677Z,84.80
2017-01-30T01:13:09.152Z,85.04
2017-01-30T01:13:30.848Z,85.38
2017-01-30T01:13:52.556Z,85.26
2017-01-30T01:14:55.650Z,85.09
2017-01-30T01:15:17.346Z,85.05
2017-01-30T01:15:48.697Z,84.92
2017-01-30T01:16:10.494Z,85.27
2017-01-30T01:16:32.203Z,85.36
2017-01-30T01:17:03.543Z,85.19
2017-01-30T01:17:25.247Z,85.11
2017-01-30T01:17:51.728Z,84.98
2017-01-30T01:18:13.446Z,85.04
2017-01-30T01:18:35.244Z,84.96
2017-01-30T01:19:01.724Z,85.10
2017-01-30T01:19:23.614Z,85.02
2017-01-30T01:19:45.416Z,85.07
2017-01-30T01:20:07.115Z,85.32
2017-01-30T01:20:28.814Z,85.33
2017-01-30T01:20:55.348Z,85.41
2017-01-30T01:21:17.155Z,85.31
2017-01-30T01:21:39.036Z,85.15
2017-01-30T01:22:00.837Z,85.18
2017-01-30T01:22:22.529Z,85.41
2017-01-30T01:22:49.009Z,85.42
2017-01-30T01:23:10.730Z,85.34
2017-01-30T01:23:32.533Z,85.22
2017-01-30T01:23:59.094Z,85.06
2017-01-30T01:24:20.785Z,85.08
2017-01-30T01:24:47.264Z,85.00
2017-01-30T01:25:08.975Z,85.01
2017-01-30T01:25:30.671Z,85.03
2017-01-30T01:25:52.478Z,85.06
2017-01-30T01:26:14.261Z,85.16
2017-01-30T01:26:35.956Z,85.23
2017-01-30T01:27:07.294Z,85.35
2017-01-30T01:27:28.990Z,85.33
2017-01-30T01:27:55.473Z,85.38
2017-01-30T01:28:17.745Z,85.51
2017-01-30T01:28:39.535Z,85.55
2017-01-30T01:29:10.799Z,85.46
2017-01-30T01:29:32.594Z,85.22
2017-01-30T01:30:03.843Z,85.25
2017-01-30T01:30:25.538Z,85.13
2017-01-30T01:30:56.876Z,84.91
2017-01-30T01:31:18.758Z,84.94
2017-01-30T01:31:50.015Z,85.29
2017-01-30T01:32:11.714Z,85.41
2017-01-30T01:32:33.411Z,85.78
2017-01-30T01:32:55.118Z,86.02
2017-01-30T01:33:16.840Z,86.21
2017-01-30T01:33:43.321Z,86.14
2017-01-30T01:34:07.807Z,85.78
2017-01-30T01:34:34.396Z,85.59
2017-01-30T01:34:56.089Z,85.54
2017-01-30T01:35:18.000Z,85.46
2017-01-30T01:35:44.468Z,85.38
2017-01-30T01:36:06.165Z,85.55
2017-01-30T01:36:27.959Z,85.51
2017-01-30T01:36:49.660Z,85.17
2017-01-30T01:37:11.364Z,85.04
2017-01-30T01:37:33.235Z,85.03
2017-01-30T01:37:54.944Z,85.13
2017-01-30T01:38:16.773Z,85.04
2017-01-30T01:38:38.571Z,84.96
2017-01-30T01:39:05.044Z,84.92
2017-01-30T01:39:26.750Z,84.77
2017-01-30T01:39:48.562Z,84.81
2017-01-30T01:40:10.371Z,84.93
2017-01-30T01:40:32.167Z,84.99
2017-01-30T01:40:53.887Z,85.07
2017-01-30T01:41:15.690Z,85.05
2017-01-30T01:41:37.555Z,85.08
2017-01-30T01:41:59.269Z,84.98
2017-01-30T01:42:21.066Z,85.03
2017-01-30T01:42:42.853Z,85.07
2017-01-30T01:43:04.558Z,84.93
2017-01-30T01:43:31.215Z,84.92
2017-01-30T01:43:53.006Z,85.06
2017-01-30T01:44:14.807Z,85.19
2017-01-30T01:44:41.295Z,85.07
2017-01-30T01:45:03.170Z,85.11
2017-01-30T01:45:24.879Z,84.94
2017-01-30T01:45:46.581Z,84.73
2017-01-30T01:46:08.470Z,84.60
2017-01-30T01:46:30.171Z,84.61
2017-01-30T01:47:01.424Z,84.60
2017-01-30T01:47:23.205Z,84.80
2017-01-30T01:47:44.902Z,84.96
2017-01-30T01:48:11.379Z,85.03
2017-01-30T01:48:33.103Z,85.10
2017-01-30T01:48:54.895Z,85.06
2017-01-30T01:49:16.696Z,85.05
2017-01-30T01:49:38.392Z,84.97
2017-01-30T01:50:00.285Z,85.09
2017-01-30T01:50:21.986Z,85.05
2017-01-30T01:50:43.770Z,84.98
2017-01-30T01:51:05.463Z,84.89
2017-01-30T01:51:27.167Z,85.02
2017-01-30T01:51:48.960Z,85.06
2017-01-30T01:52:10.754Z,85.05
2017-01-30T01:52:32.548Z,85.06
2017-01-30T01:52:54.258Z,85.01
2017-01-30T01:53:15.960Z,84.95
2017-01-30T01:53:42.426Z,84.79
2017-01-30T01:54:04.114Z,84.73
2017-01-30T01:54:25.853Z,84.69
2017-01-30T01:54:52.409Z,84.75
2017-01-30T01:55:14.210Z,84.91
2017-01-30T01:55:45.475Z,85.21
2017-01-30T01:56:07.266Z,85.23
2017-01-30T01:56:28.967Z,85.12
2017-01-30T01:56:50.846Z,85.05
2017-01-30T01:57:12.544Z,85.00
2017-01-30T01:57:34.241Z,84.89
2017-01-30T01:57:56.118Z,84.93
2017-01-30T01:58:17.815Z,84.97
2017-01-30T01:58:39.520Z,85.06
2017-01-30T01:59:06.084Z,84.95
2017-01-30T01:59:27.904Z,84.94
2017-01-30T01:59:52.416Z,85.01
2017-01-30T02:00:14.202Z,85.03
2017-01-30T02:00:35.991Z,84.99
2017-01-30T02:00:57.692Z,85.10
2017-01-30T02:01:19.380Z,85.12
2017-01-30T02:01:41.091Z,85.13
2017-01-30T02:02:02.792Z,85.19
2017-01-30T02:03:01.181Z,85.07
2017-01-30T02:03:22.987Z,85.10
2017-01-30T02:03:44.697Z,85.16
2017-01-30T02:04:06.412Z,85.14
2017-01-30T02:04:28.221Z,85.18
2017-01-30T02:04:49.967Z,85.21
2017-01-30T02:05:21.259Z,85.19
2017-01-30T02:05:42.960Z,85.20
2017-01-30T02:06:09.452Z,85.13
2017-01-30T02:06:31.247Z,85.03
2017-01-30T02:06:53.070Z,85.04
2017-01-30T02:07:14.879Z,84.98
2017-01-30T02:07:36.592Z,84.97
2017-01-30T02:08:07.846Z,84.98
2017-01-30T02:08:29.535Z,85.04
2017-01-30T02:08:51.225Z,85.09
2017-01-30T02:09:12.924Z,85.13
2017-01-30T02:09:34.710Z,85.11
2017-01-30T02:10:01.180Z,85.05
2017-01-30T02:10:22.995Z,84.99
2017-01-30T02:10:44.702Z,84.87
2017-01-30T02:11:06.396Z,84.85
2017-01-30T02:11:32.856Z,84.73
2017-01-30T02:11:59.422Z,84.81
2017-01-30T02:12:21.120Z,84.87
2017-01-30T02:12:43.018Z,84.88
2017-01-30T02:13:04.726Z,84.87
2017-01-30T02:13:26.511Z,84.85
2017-01-30T02:13:48.221Z,84.84
2017-01-30T02:14:09.938Z,84.85
2017-01-30T02:14:31.825Z,85.03
2017-01-30T02:14:53.612Z,85.06
2017-01-30T02:15:15.355Z,85.29
2017-01-30T02:15:37.045Z,85.25
2017-01-30T02:16:08.303Z,85.10
2017-01-30T02:16:30.000Z,85.32
2017-01-30T02:16:56.489Z,85.26
2017-01-30T02:17:18.309Z,85.18
2017-01-30T02:17:40.008Z,85.27
2017-01-30T02:18:01.718Z,85.41
2017-01-30T02:18:23.549Z,85.36
2017-01-30T02:18:50.134Z,85.17
2017-01-30T02:19:11.926Z,85.26
2017-01-30T02:19:33.721Z,85.11
2017-01-30T02:20:00.194Z,84.85
2017-01-30T02:20:21.893Z,84.70
2017-01-30T02:20:48.394Z,84.65
2017-01-30T02:21:10.097Z,84.63
2017-01-30T02:21:31.785Z,84.67
2017-01-30T02:21:53.494Z,84.67
2017-01-30T02:22:15.299Z,84.65
2017-01-30T02:22:36.994Z,84.63
2017-01-30T02:22:58.705Z,84.72
2017-01-30T02:23:20.404Z,84.82
2017-01-30T02:23:42.213Z,85.04
2017-01-30T02:24:03.915Z,84.92
2017-01-30T02:24:25.618Z,84.86
2017-01-30T02:24:47.318Z,84.83
2017-01-30T02:25:13.884Z,84.85
2017-01-30T02:25:35.581Z,84.76
2017-01-30T02:25:57.296Z,84.91
2017-01-30T02:26:28.545Z,85.08
2017-01-30T02:26:50.332Z,84.86
2017-01-30T02:27:12.030Z,84.85
2017-01-30T02:27:43.277Z,84.86
2017-01-30T02:28:05.063Z,84.81
2017-01-30T02:28:26.756Z,84.87
2017-01-30T02:28:48.469Z,85.03
2017-01-30T02:29:10.257Z,85.27
2017-01-30T02:29:31.973Z,85.08
2017-01-30T02:30:03.221Z,85.30
2017-01-30T02:30:25.007Z,85.41
2017-01-30T02:30:46.713Z,85.14
2017-01-30T02:31:08.445Z,84.84
2017-01-30T02:31:30.152Z,84.54
2017-01-30T02:31:51.952Z,84.43
2017-01-30T02:32:18.429Z,84.48
2017-01-30T02:32:40.132Z,84.27
2017-01-30T02:33:01.826Z,84.02
2017-01-30T02:33:28.393Z,84.00
2017-01-30T02:33:50.085Z,84.24
2017-01-30T02:34:16.563Z,84.27
2017-01-30T02:34:38.260Z,84.16
2017-01-30T02:35:00.054Z,84.10
2017-01-30T02:35:26.536Z,83.99
2017-01-30T02:35:48.235Z,84.01
2017-01-30T02:36:10.041Z,83.92
2017-01-30T02:37:13.131Z,84.06
2017-01-30T02:37:34.931Z,83.90
2017-01-30T02:37:56.629Z,83.95
2017-01-30T02:38:18.333Z,84.03
2017-01-30T02:38:40.038Z,84.01
2017-01-30T02:39:01.832Z,84.11
2017-01-30T02:39:23.537Z,84.12
2017-01-30T02:39:45.227Z,84.26
2017-01-30T02:40:11.804Z,84.22
2017-01-30T02:40:33.500Z,84.62
2017-01-30T02:40:59.977Z,84.32
2017-01-30T02:41:21.696Z,84.26
2017-01-30T02:41:48.265Z,84.35
2017-01-30T02:42:09.970Z,84.43
2017-01-30T02:42:31.675Z,84.72
2017-01-30T02:43:02.935Z,84.85
2017-01-30T02:43:24.733Z,85.05
2017-01-30T02:43:46.431Z,85.08
2017-01-30T02:44:08.137Z,84.97
2017-01-30T02:44:30.003Z,85.08
2017-01-30T02:44:51.701Z,85.08
2017-01-30T02:45:13.406Z,84.98
2017-01-30T02:45:35.101Z,85.04
2017-01-30T02:45:56.907Z,85.13
2017-01-30T02:46:28.159Z,85.02
2017-01-30T02:46:49.882Z,85.02
2017-01-30T02:47:11.686Z,85.07
2017-01-30T02:47:33.398Z,85.01
2017-01-30T02:47:55.100Z,84.92
2017-01-30T02:48:16.796Z,84.99
2017-01-30T02:48:38.595Z,84.97
2017-01-30T02:49:00.291Z,84.76
2017-01-30T02:49:21.996Z,85.04
2017-01-30T02:49:48.473Z,85.32
2017-01-30T02:50:10.252Z,85.39
2017-01-30T02:50:31.958Z,85.20
2017-01-30T02:50:58.444Z,84.84
2017-01-30T02:51:20.223Z,84.71
2017-01-30T02:51:41.927Z,84.57
2017-01-30T02:52:03.662Z,84.81
2017-01-30T02:52:25.354Z,84.82
2017-01-30T02:52:47.144Z,84.93
2017-01-30T02:53:08.861Z,84.97
2017-01-30T02:53:30.610Z,84.89
2017-01-30T02:53:52.316Z,85.02
2017-01-30T02:54:23.574Z,84.87
2017-01-30T02:54:45.356Z,84.74
2017-01-30T02:55:07.071Z,84.93
2017-01-30T02:55:28.773Z,84.79
2017-01-30T02:55:50.575Z,84.92
2017-01-30T02:56:12.278Z,85.22
2017-01-30T02:56:43.526Z,85.52
2017-01-30T02:57:05.344Z,85.33
2017-01-30T02:57:31.819Z,85.34
2017-01-30T02:57:53.515Z,85.38
2017-01-30T02:58:24.775Z,85.45
2017-01-30T02:58:46.562Z,85.17
2017-01-30T02:59:08.268Z,85.00
2017-01-30T02:59:34.744Z,85.07
2017-01-30T02:59:56.531Z,84.89
2017-01-30T03:00:18.234Z,84.86
2017-01-30T03:00:44.712Z,84.84
2017-01-30T03:01:06.406Z,85.07
2017-01-30T03:01:32.969Z,85.24
2017-01-30T03:01:54.678Z,85.22
2017-01-30T03:02:16.418Z,84.88
2017-01-30T03:02:38.121Z,84.95
2017-01-30T03:02:59.945Z,85.18
2017-01-30T03:03:31.208Z,85.09
2017-01-30T03:03:52.912Z,84.95
2017-01-30T03:04:19.495Z,85.14
2017-01-30T03:04:41.194Z,85.38
2017-01-30T03:05:07.678Z,85.43
2017-01-30T03:05:29.370Z,85.30
2017-01-30T03:06:00.631Z,85.31
2017-01-30T03:06:22.413Z,85.25
2017-01-30T03:06:44.118Z,85.22
2017-01-30T03:07:05.829Z,85.06
2017-01-30T03:07:27.660Z,84.90
2017-01-30T03:08:30.745Z,84.91
2017-01-30T03:08:52.532Z,85.08
2017-01-30T03:09:19.007Z,85.03
2017-01-30T03:09:40.707Z,85.05
2017-01-30T03:11:03.701Z,85.07
2017-01-30T03:11:25.395Z,85.23
2017-01-30T03:11:47.207Z,85.34
2017-01-30T03:12:13.703Z,85.37
2017-01-30T03:12:35.405Z,85.29
2017-01-30T03:13:01.970Z,85.19
2017-01-30T03:13:23.672Z,85.20
2017-01-30T03:13:50.169Z,85.27
2017-01-30T03:14:11.888Z,85.10
2017-01-30T03:14:38.476Z,85.14
2017-01-30T03:15:00.163Z,85.22
2017-01-30T03:15:26.640Z,85.16
2017-01-30T03:15:48.350Z,84.96
2017-01-30T03:16:14.913Z,85.21
2017-01-30T03:16:36.611Z,85.26
2017-01-30T03:16:58.322Z,85.16
2017-01-30T03:17:29.583Z,85.12
2017-01-30T03:17:51.392Z,85.29
2017-01-30T03:18:24.249Z,85.37
2017-01-30T03:18:46.033Z,85.40
2017-01-30T03:19:17.280Z,85.09
2017-01-30T03:19:42.624Z,85.54
2017-01-30T03:20:04.415Z,85.64
2017-01-30T03:20:35.683Z,85.66
2017-01-30T03:20:57.383Z,85.73
2017-01-30T03:22:00.627Z,85.49
2017-01-30T03:22:22.560Z,85.75
2017-01-30T03:22:44.265Z,85.83
2017-01-30T03:23:10.830Z,85.68
2017-01-30T03:23:32.527Z,85.85
2017-01-30T03:23:54.228Z,85.70
2017-01-30T03:24:15.964Z,85.52
2017-01-30T03:24:37.678Z,85.42
2017-01-30T03:24:59.386Z,85.45
2017-01-30T03:25:25.877Z,85.30
2017-01-30T03:25:47.586Z,85.81
2017-01-30T03:26:09.370Z,86.06
2017-01-30T03:26:31.072Z,86.07
2017-01-30T03:26:52.766Z,86.11
2017-01-30T03:27:22.915Z,86.08
2017-01-30T03:27:49.391Z,86.24
2017-01-30T03:28:11.103Z,86.15
2017-01-30T03:28:32.885Z,86.28
2017-01-30T03:28:54.592Z,86.24
2017-01-30T03:29:22.030Z,86.22
2017-01-30T03:29:48.516Z,86.27
2017-01-30T03:30:14.999Z,86.17
2017-01-30T03:30:36.815Z,86.25
2017-01-30T03:31:08.068Z,86.20
2017-01-30T03:31:29.758Z,86.29
2017-01-30T03:31:51.491Z,86.36
2017-01-30T03:32:15.920Z,86.37
2017-01-30T03:32:47.184Z,86.36
2017-01-30T03:33:08.894Z,86.44
2017-01-30T03:34:01.847Z,86.20
2017-01-30T03:34:28.323Z,86.22
2017-01-30T03:34:50.057Z,86.43
2017-01-30T03:35:16.646Z,86.17
2017-01-30T03:35:38.386Z,86.22
2017-01-30T03:36:04.891Z,85.98
2017-01-30T03:36:26.616Z,85.86
2017-01-30T03:37:24.954Z,86.00
2017-01-30T03:37:46.660Z,85.98
2017-01-30T03:38:17.919Z,86.15
2017-01-30T03:38:39.633Z,86.16
2017-01-30T03:39:38.035Z,86.29
2017-01-30T03:39:59.731Z,86.25
2017-01-30T03:40:21.439Z,85.99
2017-01-30T03:41:19.763Z,85.59
2017-01-30T03:42:08.044Z,85.61
2017-01-30T03:42:29.750Z,85.61
2017-01-30T03:43:37.072Z,85.76
2017-01-30T03:43:58.796Z,85.87
2017-01-30T03:44:20.617Z,85.69
2017-01-30T03:44:42.428Z,85.67
2017-01-30T03:45:04.140Z,85.87
2017-01-30T03:46:11.424Z,86.00
2017-01-30T03:46:33.226Z,85.95
2017-01-30T03:46:57.651Z,86.07
2017-01-30T03:47:19.360Z,85.97
2017-01-30T03:47:50.619Z,86.11
2017-01-30T03:48:12.326Z,86.17
2017-01-30T03:48:43.571Z,86.22
2017-01-30T03:49:05.294Z,86.35
2017-01-30T03:49:36.548Z,86.39
2017-01-30T03:49:58.276Z,86.48
2017-01-30T03:50:29.547Z,86.37
2017-01-30T03:50:51.299Z,86.39
2017-01-30T03:51:22.553Z,86.25
2017-01-30T03:51:44.250Z,86.23
2017-01-30T03:52:56.307Z,86.08
2017-01-30T03:53:18.099Z,85.93
2017-01-30T03:54:30.148Z,85.83
2017-01-30T03:54:51.855Z,85.87
2017-01-30T03:55:13.586Z,85.77
2017-01-30T03:55:35.315Z,85.93
2017-01-30T03:55:57.021Z,85.83
2017-01-30T03:56:18.737Z,85.80
2017-01-30T03:56:40.462Z,85.89
2017-01-30T03:57:02.163Z,85.72
2017-01-30T03:57:33.415Z,85.55
2017-01-30T03:57:55.120Z,85.49
2017-01-30T03:58:16.818Z,85.55
2017-01-30T03:58:38.636Z,85.45
2017-01-30T03:59:00.351Z,85.63
2017-01-30T03:59:26.845Z,85.68
2017-01-30T03:59:48.584Z,85.65
2017-01-30T04:00:10.300Z,85.74
2017-01-30T04:00:36.774Z,86.11
2017-01-30T04:00:58.584Z,85.97
2017-01-30T04:01:25.058Z,85.88
2017-01-30T04:01:46.753Z,86.06
2017-01-30T04:02:13.257Z,86.16
2017-01-30T04:02:34.943Z,86.22
2017-01-30T04:02:56.646Z,86.58
2017-01-30T04:03:59.263Z,86.66
2017-01-30T04:04:21.002Z,86.77
2017-01-30T04:04:42.681Z,86.92
2017-01-30T04:05:04.478Z,86.94
2017-01-30T04:05:26.192Z,86.90
2017-01-30T04:05:47.885Z,86.97
2017-01-30T04:06:14.476Z,87.29
2017-01-30T04:06:36.267Z,87.36
2017-01-30T04:07:02.739Z,87.31
2017-01-30T04:07:24.446Z,87.40
2017-01-30T04:07:46.367Z,87.39
2017-01-30T04:08:12.854Z,87.22
2017-01-30T04:08:34.554Z,87.11
2017-01-30T04:08:56.287Z,87.01
2017-01-30T04:09:22.772Z,86.78
2017-01-30T04:09:44.490Z,86.60
2017-01-30T04:10:06.348Z,86.57
2017-01-30T04:10:32.834Z,86.66
2017-01-30T04:10:54.523Z,86.76
2017-01-30T04:11:16.264Z,86.87
2017-01-30T04:11:37.974Z,86.94
2017-01-30T04:11:59.714Z,86.91
2017-01-30T04:12:30.966Z,86.92
2017-01-30T04:12:52.673Z,87.08
2017-01-30T04:13:14.373Z,87.11
2017-01-30T04:13:40.847Z,87.22
2017-01-30T04:14:02.567Z,87.36
2017-01-30T04:15:08.058Z,87.59
2017-01-30T04:15:29.768Z,87.72
2017-01-30T04:16:28.046Z,87.75
2017-01-30T04:16:49.761Z,87.52
2017-01-30T04:17:16.244Z,87.61
2017-01-30T04:17:37.952Z,87.72
2017-01-30T04:17:59.650Z,87.53
2017-01-30T04:18:26.137Z,87.48
2017-01-30T04:18:47.831Z,87.26
2017-01-30T04:19:14.313Z,87.09
2017-01-30T04:19:36.014Z,87.13
2017-01-30T04:20:07.272Z,87.02
2017-01-30T04:20:28.966Z,87.27
2017-01-30T04:20:50.697Z,87.18
2017-01-30T04:21:12.398Z,87.38
2017-01-30T04:21:34.102Z,87.40
2017-01-30T04:21:55.829Z,87.45
2017-01-30T04:22:17.561Z,87.25
2017-01-30T04:22:39.288Z,87.29
2017-01-30T04:23:41.798Z,87.48
2017-01-30T04:24:03.494Z,87.34
2017-01-30T04:24:34.752Z,87.44
2017-01-30T04:24:56.464Z,87.60
2017-01-30T04:25:22.972Z,87.67
2017-01-30T04:25:44.661Z,87.68
2017-01-30T04:26:42.959Z,87.52
2017-01-30T04:27:04.675Z,87.92
2017-01-30T04:27:26.413Z,87.85
2017-01-30T04:27:48.131Z,87.84
2017-01-30T04:28:09.828Z,87.87
2017-01-30T04:28:31.539Z,88.01
2017-01-30T04:28:53.258Z,88.06
2017-01-30T04:29:15.064Z,88.11
2017-01-30T04:29:36.776Z,88.11
2017-01-30T04:30:03.250Z,88.22
2017-01-30T04:30:24.947Z,88.26
2017-01-30T04:30:46.658Z,88.28
2017-01-30T04:31:08.393Z,88.00
2017-01-30T04:31:30.111Z,88.15
2017-01-30T04:32:01.373Z,88.22
2017-01-30T04:32:23.085Z,88.24
2017-01-30T04:32:44.821Z,87.99
2017-01-30T04:33:16.093Z,87.72
2017-01-30T04:33:37.798Z,87.90
2017-01-30T04:33:59.503Z,87.87
2017-01-30T04:35:24.031Z,88.00
2017-01-30T04:35:51.011Z,87.69
2017-01-30T04:36:12.720Z,87.99
2017-01-30T04:36:39.241Z,88.12
2017-01-30T04:37:00.951Z,88.06
2017-01-30T04:37:22.660Z,88.13
2017-01-30T04:38:25.755Z,88.26
2017-01-30T04:38:47.470Z,88.31
2017-01-30T04:39:13.947Z,88.39
2017-01-30T04:39:35.657Z,88.58
2017-01-30T04:40:02.150Z,88.43
2017-01-30T04:40:23.848Z,89.00
2017-01-30T04:40:50.335Z,88.94
2017-01-30T04:41:12.037Z,89.08
2017-01-30T04:41:33.734Z,89.18
2017-01-30T04:41:55.447Z,89.30
2017-01-30T04:42:17.146Z,89.29
2017-01-30T04:42:48.405Z,89.08
2017-01-30T04:43:10.098Z,88.93
2017-01-30T04:43:31.799Z,88.97
2017-01-30T04:43:53.500Z,89.25
2017-01-30T04:44:15.207Z,89.34
2017-01-30T04:44:41.694Z,89.14
2017-01-30T04:45:03.428Z,89.27
2017-01-30T04:45:25.104Z,89.47
2017-01-30T04:45:51.582Z,89.65
2017-01-30T04:46:13.278Z,89.65
2017-01-30T04:46:34.985Z,90.04
2017-01-30T04:47:42.267Z,89.91
2017-01-30T04:48:03.966Z,90.26
2017-01-30T04:48:25.669Z,89.98
2017-01-30T04:48:47.373Z,89.73
2017-01-30T04:49:09.069Z,89.96
2017-01-30T04:49:30.795Z,90.03
2017-01-30T04:49:57.281Z,90.14
2017-01-30T04:50:19.003Z,90.17
2017-01-30T04:50:45.453Z,90.26
2017-01-30T04:51:07.163Z,89.91
2017-01-30T04:51:28.875Z,90.34
2017-01-30T04:51:55.367Z,90.50
2017-01-30T04:52:17.066Z,90.65
2017-01-30T04:52:38.757Z,90.72
2017-01-30T04:53:10.090Z,90.67
2017-01-30T04:53:31.792Z,90.76
2017-01-30T04:53:53.485Z,90.91
2017-01-30T04:54:24.740Z,90.58
2017-01-30T04:54:51.234Z,90.75
2017-01-30T04:55:17.724Z,90.92
2017-01-30T04:55:39.441Z,90.96
2017-01-30T04:56:01.146Z,91.00
2017-01-30T04:56:22.854Z,90.77
2017-01-30T04:56:44.554Z,90.91
2017-01-30T04:57:06.259Z,91.11
2017-01-30T04:57:32.734Z,90.59
2017-01-30T04:57:54.433Z,90.53
2017-01-30T04:58:16.128Z,90.63
2017-01-30T04:58:42.603Z,91.03
2017-01-30T04:59:04.313Z,91.13
2017-01-30T04:59:26.014Z,91.01
2017-01-30T04:59:57.257Z,91.19
2017-01-30T05:00:18.952Z,90.97
2017-01-30T05:00:45.436Z,91.11
2017-01-30T05:01:07.132Z,91.16
2017-01-30T05:01:38.397Z,91.09
2017-01-30T05:02:00.104Z,91.38
2017-01-30T05:02:21.804Z,91.35
2017-01-30T05:02:43.506Z,91.51
2017-01-30T05:03:05.202Z,91.44
2017-01-30T05:03:26.909Z,91.55
2017-01-30T05:03:48.636Z,91.53
2017-01-30T05:04:10.335Z,91.19
2017-01-30T05:04:32.042Z,91.56
2017-01-30T05:04:53.768Z,91.70
2017-01-30T05:05:16.482Z,91.58
2017-01-30T05:05:38.199Z,91.45
2017-01-30T05:06:04.683Z,91.57
2017-01-30T05:06:26.385Z,91.66
2017-01-30T05:06:52.866Z,91.76
2017-01-30T05:07:14.568Z,91.58
2017-01-30T05:07:36.266Z,91.39
2017-01-30T05:07:57.981Z,91.37
2017-01-30T05:08:19.678Z,91.22
2017-01-30T05:08:41.384Z,91.06
2017-01-30T05:09:07.862Z,91.65
2017-01-30T05:09:29.563Z,91.53
2017-01-30T05:09:51.282Z,91.48
2017-01-30T05:10:12.996Z,91.61
2017-01-30T05:10:34.775Z,91.23
2017-01-30T05:10:56.449Z,90.76
2017-01-30T05:11:18.161Z,91.26
2017-01-30T05:11:39.854Z,91.12
2017-01-30T05:12:01.573Z,91.84
2017-01-30T05:12:28.064Z,91.85
2017-01-30T05:12:49.755Z,91.78
2017-01-30T05:13:21.006Z,91.71
2017-01-30T05:13:42.696Z,91.66
2017-01-30T05:14:04.412Z,91.56
2017-01-30T05:14:26.111Z,91.76
2017-01-30T05:14:47.809Z,92.20
2017-01-30T05:15:09.518Z,92.07
2017-01-30T05:15:31.227Z,91.79
2017-01-30T05:15:52.930Z,91.54
2017-01-30T05:16:19.437Z,91.15
2017-01-30T05:16:41.139Z,91.19
2017-01-30T05:17:07.614Z,91.39
2017-01-30T05:17:29.320Z,91.23
2017-01-30T05:17:51.012Z,91.25
2017-01-30T05:18:12.724Z,91.63
2017-01-30T05:18:34.433Z,91.17
2017-01-30T05:18:56.142Z,91.11
2017-01-30T05:19:17.853Z,91.44
2017-01-30T05:19:39.557Z,91.21
2017-01-30T05:20:03.866Z,91.19
2017-01-30T05:20:25.573Z,90.89
2017-01-30T05:20:47.277Z,91.53
2017-01-30T05:21:09.108Z,91.86
2017-01-30T05:21:35.583Z,91.98
2017-01-30T05:21:57.276Z,92.16
2017-01-30T05:22:18.974Z,92.21
2017-01-30T05:22:40.680Z,92.49
2017-01-30T05:23:02.437Z,92.40
2017-01-30T05:23:24.131Z,92.40
2017-01-30T05:23:45.838Z,92.30
2017-01-30T05:24:07.535Z,91.75
2017-01-30T05:24:29.239Z,91.74
2017-01-30T05:24:50.950Z,92.33
2017-01-30T05:25:12.644Z,92.25
2017-01-30T05:25:34.346Z,92.09
2017-01-30T05:25:56.054Z,92.08
2017-01-30T05:26:17.782Z,92.24